sensor_id;sensor_type;location;lat;lon;timestamp;P1;durP1;ratioP1;P2;durP2;ratioP2
12232;SDS011;6179;51.748;8.728;2022-11-15T00:04:38;4.77;;;2.50;;
12232;SDS011;6179;51.748;8.728;2022-11-15T00:10:39;4.40;;;3.37;;
12232;SDS011;6179;51.748;8.728;2022-11-15T00:16:40;7.23;;;2.53;;
12232;SDS011;6179;51.748;8.728;2022-11-15T00:22:41;6.77;;;3.17;;
12232;SDS011;6179;51.748;8.728;2022-11-15T00:28:42;5.53;;;2.50;;
12232;SDS011;6179;51.748;8.728;2022-11-15T00:34:42;4.90;;;2.70;;
12232;SDS011;6179;51.748;8.728;2022-11-15T00:40:43;8.90;;;4.53;;
12232;SDS011;6179;51.748;8.728;2022-11-15T00:46:44;7.10;;;4.00;;
12232;SDS011;6179;51.748;8.728;2022-11-15T00:52:45;11.20;;;4.30;;
12232;SDS011;6179;51.748;8.728;2022-11-15T00:58:46;5.90;;;3.73;;
12232;SDS011;6179;51.748;8.728;2022-11-15T01:04:46;6.20;;;4.37;;
12232;SDS011;6179;51.748;8.728;2022-11-15T01:10:47;7.77;;;3.33;;
12232;SDS011;6179;51.748;8.728;2022-11-15T01:16:48;6.17;;;3.93;;
12232;SDS011;6179;51.748;8.728;2022-11-15T01:22:49;12.93;;;4.70;;
12232;SDS011;6179;51.748;8.728;2022-11-15T01:28:50;8.40;;;4.43;;
12232;SDS011;6179;51.748;8.728;2022-11-15T01:34:50;12.00;;;4.03;;
12232;SDS011;6179;51.748;8.728;2022-11-15T01:40:51;8.00;;;3.70;;
12232;SDS011;6179;51.748;8.728;2022-11-15T01:46:53;10.03;;;5.03;;
12232;SDS011;6179;51.748;8.728;2022-11-15T01:52:54;7.43;;;4.77;;
12232;SDS011;6179;51.748;8.728;2022-11-15T01:58:56;14.87;;;5.63;;
12232;SDS011;6179;51.748;8.728;2022-11-15T02:05:00;10.03;;;6.17;;
12232;SDS011;6179;51.748;8.728;2022-11-15T02:11:04;13.30;;;5.60;;
12232;SDS011;6179;51.748;8.728;2022-11-15T02:36:14;13.87;;;6.40;;
12232;SDS011;6179;51.748;8.728;2022-11-15T02:42:53;8.77;;;5.57;;
12232;SDS011;6179;51.748;8.728;2022-11-15T02:49:18;10.90;;;6.40;;
12232;SDS011;6179;51.748;8.728;2022-11-15T03:01:38;16.67;;;6.37;;
12232;SDS011;6179;51.748;8.728;2022-11-15T03:21:23;11.27;;;5.83;;
12232;SDS011;6179;51.748;8.728;2022-11-15T03:27:28;12.10;;;7.00;;
12232;SDS011;6179;51.748;8.728;2022-11-15T03:33:39;7.73;;;5.50;;
12232;SDS011;6179;51.748;8.728;2022-11-15T03:39:41;9.40;;;5.27;;
12232;SDS011;6179;51.748;8.728;2022-11-15T03:45:47;9.10;;;5.30;;
12232;SDS011;6179;51.748;8.728;2022-11-15T03:51:58;10.10;;;5.40;;
12232;SDS011;6179;51.748;8.728;2022-11-15T03:58:02;8.63;;;5.17;;
12232;SDS011;6179;51.748;8.728;2022-11-15T04:04:03;11.50;;;6.43;;
12232;SDS011;6179;51.748;8.728;2022-11-15T04:10:04;22.43;;;6.40;;
12232;SDS011;6179;51.748;8.728;2022-11-15T04:16:06;13.53;;;7.07;;
12232;SDS011;6179;51.748;8.728;2022-11-15T04:22:07;12.40;;;6.07;;
12232;SDS011;6179;51.748;8.728;2022-11-15T04:28:26;17.90;;;7.20;;
12232;SDS011;6179;51.748;8.728;2022-11-15T04:34:27;17.27;;;5.90;;
12232;SDS011;6179;51.748;8.728;2022-11-15T04:40:28;12.07;;;5.43;;
12232;SDS011;6179;51.748;8.728;2022-11-15T04:46:29;14.70;;;6.20;;
12232;SDS011;6179;51.748;8.728;2022-11-15T04:52:30;7.73;;;4.70;;
12232;SDS011;6179;51.748;8.728;2022-11-15T04:58:31;12.40;;;5.50;;
12232;SDS011;6179;51.748;8.728;2022-11-15T05:04:32;10.40;;;5.40;;
12232;SDS011;6179;51.748;8.728;2022-11-15T05:10:32;6.73;;;5.00;;
12232;SDS011;6179;51.748;8.728;2022-11-15T05:16:33;9.90;;;6.70;;
12232;SDS011;6179;51.748;8.728;2022-11-15T05:22:35;11.57;;;5.00;;
12232;SDS011;6179;51.748;8.728;2022-11-15T05:28:36;9.10;;;5.50;;
12232;SDS011;6179;51.748;8.728;2022-11-15T05:34:37;6.80;;;3.73;;
12232;SDS011;6179;51.748;8.728;2022-11-15T05:40:39;7.13;;;3.40;;
12232;SDS011;6179;51.748;8.728;2022-11-15T05:46:40;9.03;;;4.57;;
12232;SDS011;6179;51.748;8.728;2022-11-15T05:52:42;9.90;;;4.57;;
12232;SDS011;6179;51.748;8.728;2022-11-15T05:58:45;8.60;;;5.27;;
12232;SDS011;6179;51.748;8.728;2022-11-15T06:04:46;12.17;;;6.30;;
12232;SDS011;6179;51.748;8.728;2022-11-15T06:10:47;10.87;;;4.37;;
12232;SDS011;6179;51.748;8.728;2022-11-15T06:16:48;8.17;;;5.30;;
12232;SDS011;6179;51.748;8.728;2022-11-15T06:22:48;11.87;;;6.53;;
12232;SDS011;6179;51.748;8.728;2022-11-15T06:28:49;5.57;;;4.23;;
12232;SDS011;6179;51.748;8.728;2022-11-15T06:34:50;7.67;;;4.47;;
12232;SDS011;6179;51.748;8.728;2022-11-15T06:40:51;26.00;;;4.17;;
12232;SDS011;6179;51.748;8.728;2022-11-15T06:46:52;6.17;;;3.60;;
12232;SDS011;6179;51.748;8.728;2022-11-15T06:52:52;13.13;;;3.60;;
12232;SDS011;6179;51.748;8.728;2022-11-15T06:58:55;8.23;;;5.43;;
12232;SDS011;6179;51.748;8.728;2022-11-15T07:04:56;7.73;;;2.83;;
12232;SDS011;6179;51.748;8.728;2022-11-15T07:11:00;5.90;;;3.43;;
12232;SDS011;6179;51.748;8.728;2022-11-15T07:17:04;5.97;;;2.83;;
12232;SDS011;6179;51.748;8.728;2022-11-15T07:23:05;4.50;;;2.40;;
12232;SDS011;6179;51.748;8.728;2022-11-15T07:29:06;6.60;;;2.77;;
12232;SDS011;6179;51.748;8.728;2022-11-15T07:35:07;13.93;;;4.20;;
12232;SDS011;6179;51.748;8.728;2022-11-15T07:41:08;5.23;;;2.50;;
12232;SDS011;6179;51.748;8.728;2022-11-15T07:47:09;4.63;;;2.30;;
12232;SDS011;6179;51.748;8.728;2022-11-15T07:53:10;4.63;;;2.70;;
12232;SDS011;6179;51.748;8.728;2022-11-15T07:59:11;3.77;;;2.80;;
12232;SDS011;6179;51.748;8.728;2022-11-15T08:05:12;8.07;;;3.47;;
12232;SDS011;6179;51.748;8.728;2022-11-15T08:11:13;12.03;;;1.87;;
12232;SDS011;6179;51.748;8.728;2022-11-15T08:17:14;3.33;;;2.70;;
12232;SDS011;6179;51.748;8.728;2022-11-15T08:23:15;2.83;;;1.50;;
12232;SDS011;6179;51.748;8.728;2022-11-15T08:29:16;1.30;;;1.20;;
12232;SDS011;6179;51.748;8.728;2022-11-15T08:35:18;1.30;;;1.20;;
12232;SDS011;6179;51.748;8.728;2022-11-15T08:41:28;2.97;;;1.30;;
12232;SDS011;6179;51.748;8.728;2022-11-15T08:47:32;4.67;;;2.47;;
12232;SDS011;6179;51.748;8.728;2022-11-15T08:53:33;3.87;;;2.27;;
12232;SDS011;6179;51.748;8.728;2022-11-15T08:59:35;5.57;;;2.00;;
12232;SDS011;6179;51.748;8.728;2022-11-15T09:05:36;7.63;;;3.43;;
12232;SDS011;6179;51.748;8.728;2022-11-15T09:11:37;6.10;;;2.30;;
12232;SDS011;6179;51.748;8.728;2022-11-15T09:17:39;2.90;;;1.30;;
12232;SDS011;6179;51.748;8.728;2022-11-15T09:23:40;8.13;;;2.80;;
12232;SDS011;6179;51.748;8.728;2022-11-15T09:29:41;2.70;;;1.53;;
12232;SDS011;6179;51.748;8.728;2022-11-15T09:35:42;2.30;;;1.53;;
12232;SDS011;6179;51.748;8.728;2022-11-15T09:54:37;4.40;;;2.00;;
12232;SDS011;6179;51.748;8.728;2022-11-15T10:00:41;0.90;;;0.60;;
12232;SDS011;6179;51.748;8.728;2022-11-15T10:07:31;0.90;;;0.70;;
12232;SDS011;6179;51.748;8.728;2022-11-15T10:13:26;2.07;;;0.70;;
12232;SDS011;6179;51.748;8.728;2022-11-15T10:25:45;1.80;;;0.60;;
12232;SDS011;6179;51.748;8.728;2022-11-15T10:31:46;0.57;;;0.53;;
12232;SDS011;6179;51.748;8.728;2022-11-15T10:37:48;1.40;;;0.50;;
12232;SDS011;6179;51.748;8.728;2022-11-15T10:50:30;2.37;;;0.50;;
12232;SDS011;6179;51.748;8.728;2022-11-15T10:56:32;0.77;;;0.50;;
12232;SDS011;6179;51.748;8.728;2022-11-15T11:02:40;0.93;;;0.60;;
12232;SDS011;6179;51.748;8.728;2022-11-15T11:09:09;2.30;;;0.50;;
12232;SDS011;6179;51.748;8.728;2022-11-15T11:15:30;3.23;;;0.60;;
12232;SDS011;6179;51.748;8.728;2022-11-15T11:27:59;0.60;;;0.50;;
12232;SDS011;6179;51.748;8.728;2022-11-15T11:34:29;1.10;;;0.70;;
12232;SDS011;6179;51.748;8.728;2022-11-15T11:47:57;3.13;;;0.50;;
12232;SDS011;6179;51.748;8.728;2022-11-15T12:01:10;0.60;;;0.60;;
12232;SDS011;6179;51.748;8.728;2022-11-15T12:07:35;1.90;;;0.60;;
12232;SDS011;6179;51.748;8.728;2022-11-15T12:13:40;0.60;;;0.60;;
12232;SDS011;6179;51.748;8.728;2022-11-15T12:19:44;1.60;;;0.60;;
12232;SDS011;6179;51.748;8.728;2022-11-15T12:25:50;3.37;;;0.60;;
12232;SDS011;6179;51.748;8.728;2022-11-15T12:32:03;0.93;;;0.80;;
12232;SDS011;6179;51.748;8.728;2022-11-15T12:38:15;0.60;;;0.60;;
12232;SDS011;6179;51.748;8.728;2022-11-15T13:03:20;0.90;;;0.60;;
12232;SDS011;6179;51.748;8.728;2022-11-15T13:21:51;0.77;;;0.70;;
12232;SDS011;6179;51.748;8.728;2022-11-15T13:40:36;6.17;;;0.50;;
12232;SDS011;6179;51.748;8.728;2022-11-15T13:46:37;0.60;;;0.60;;
12232;SDS011;6179;51.748;8.728;2022-11-15T13:52:39;0.60;;;0.60;;
12232;SDS011;6179;51.748;8.728;2022-11-15T13:58:44;0.60;;;0.60;;
12232;SDS011;6179;51.748;8.728;2022-11-15T14:04:49;0.90;;;0.80;;
12232;SDS011;6179;51.748;8.728;2022-11-15T14:17:21;2.20;;;0.70;;
12232;SDS011;6179;51.748;8.728;2022-11-15T14:23:35;0.57;;;0.57;;
12232;SDS011;6179;51.748;8.728;2022-11-15T14:29:36;4.67;;;0.50;;
12232;SDS011;6179;51.748;8.728;2022-11-15T14:35:37;1.03;;;0.60;;
12232;SDS011;6179;51.748;8.728;2022-11-15T14:41:38;1.43;;;0.60;;
12232;SDS011;6179;51.748;8.728;2022-11-15T14:47:39;4.80;;;0.97;;
12232;SDS011;6179;51.748;8.728;2022-11-15T14:53:42;0.57;;;0.50;;
12232;SDS011;6179;51.748;8.728;2022-11-15T14:59:44;2.13;;;0.57;;
12232;SDS011;6179;51.748;8.728;2022-11-15T15:05:45;1.73;;;0.50;;
12232;SDS011;6179;51.748;8.728;2022-11-15T15:11:46;1.40;;;1.30;;
12232;SDS011;6179;51.748;8.728;2022-11-15T15:17:47;2.90;;;1.93;;
12232;SDS011;6179;51.748;8.728;2022-11-15T15:23:48;1.27;;;0.50;;
12232;SDS011;6179;51.748;8.728;2022-11-15T15:29:49;0.80;;;0.67;;
12232;SDS011;6179;51.748;8.728;2022-11-15T15:35:50;1.20;;;0.60;;
12232;SDS011;6179;51.748;8.728;2022-11-15T15:41:52;0.77;;;0.50;;
12232;SDS011;6179;51.748;8.728;2022-11-15T15:47:53;0.60;;;0.50;;
12232;SDS011;6179;51.748;8.728;2022-11-15T15:53:54;0.80;;;0.50;;
12232;SDS011;6179;51.748;8.728;2022-11-15T15:59:57;0.90;;;0.60;;
12232;SDS011;6179;51.748;8.728;2022-11-15T16:05:57;0.93;;;0.50;;
12232;SDS011;6179;51.748;8.728;2022-11-15T16:11:58;1.63;;;0.77;;
12232;SDS011;6179;51.748;8.728;2022-11-15T16:17:59;2.80;;;1.47;;
12232;SDS011;6179;51.748;8.728;2022-11-15T16:24:02;1.53;;;0.60;;
12232;SDS011;6179;51.748;8.728;2022-11-15T16:30:03;0.50;;;0.43;;
12232;SDS011;6179;51.748;8.728;2022-11-15T16:36:05;0.67;;;0.50;;
12232;SDS011;6179;51.748;8.728;2022-11-15T16:42:19;0.60;;;0.57;;
12232;SDS011;6179;51.748;8.728;2022-11-15T16:48:26;2.20;;;0.60;;
12232;SDS011;6179;51.748;8.728;2022-11-15T16:54:27;1.23;;;0.80;;
12232;SDS011;6179;51.748;8.728;2022-11-15T17:00:28;1.90;;;0.90;;
12232;SDS011;6179;51.748;8.728;2022-11-15T17:06:29;1.30;;;0.80;;
12232;SDS011;6179;51.748;8.728;2022-11-15T17:12:30;4.00;;;1.10;;
12232;SDS011;6179;51.748;8.728;2022-11-15T17:18:31;0.80;;;0.60;;
12232;SDS011;6179;51.748;8.728;2022-11-15T17:24:32;6.20;;;0.70;;
12232;SDS011;6179;51.748;8.728;2022-11-15T17:30:33;2.30;;;1.13;;
12232;SDS011;6179;51.748;8.728;2022-11-15T17:36:34;3.53;;;0.70;;
12232;SDS011;6179;51.748;8.728;2022-11-15T17:42:35;1.20;;;0.90;;
12232;SDS011;6179;51.748;8.728;2022-11-15T17:48:39;0.80;;;0.70;;
12232;SDS011;6179;51.748;8.728;2022-11-15T17:54:40;5.20;;;3.00;;
12232;SDS011;6179;51.748;8.728;2022-11-15T18:00:40;0.93;;;0.70;;
12232;SDS011;6179;51.748;8.728;2022-11-15T18:06:41;1.77;;;0.90;;
12232;SDS011;6179;51.748;8.728;2022-11-15T18:12:45;1.60;;;0.83;;
12232;SDS011;6179;51.748;8.728;2022-11-15T18:18:46;1.13;;;0.70;;
12232;SDS011;6179;51.748;8.728;2022-11-15T18:24:47;4.13;;;1.57;;
12232;SDS011;6179;51.748;8.728;2022-11-15T18:30:48;2.90;;;0.80;;
12232;SDS011;6179;51.748;8.728;2022-11-15T18:36:52;1.60;;;0.80;;
12232;SDS011;6179;51.748;8.728;2022-11-15T18:42:53;2.83;;;0.87;;
12232;SDS011;6179;51.748;8.728;2022-11-15T18:48:54;3.87;;;0.80;;
12232;SDS011;6179;51.748;8.728;2022-11-15T18:54:55;1.33;;;0.80;;
12232;SDS011;6179;51.748;8.728;2022-11-15T19:01:09;1.17;;;0.80;;
12232;SDS011;6179;51.748;8.728;2022-11-15T19:07:19;2.10;;;0.90;;
12232;SDS011;6179;51.748;8.728;2022-11-15T19:13:20;1.23;;;0.80;;
12232;SDS011;6179;51.748;8.728;2022-11-15T19:19:22;2.43;;;0.60;;
12232;SDS011;6179;51.748;8.728;2022-11-15T19:25:27;2.20;;;0.80;;
12232;SDS011;6179;51.748;8.728;2022-11-15T19:31:29;7.40;;;1.20;;
12232;SDS011;6179;51.748;8.728;2022-11-15T19:37:31;1.17;;;1.10;;
12232;SDS011;6179;51.748;8.728;2022-11-15T19:43:33;0.83;;;0.80;;
12232;SDS011;6179;51.748;8.728;2022-11-15T19:49:34;1.00;;;0.90;;
12232;SDS011;6179;51.748;8.728;2022-11-15T19:55:35;3.90;;;1.30;;
12232;SDS011;6179;51.748;8.728;2022-11-15T20:01:36;1.10;;;0.70;;
12232;SDS011;6179;51.748;8.728;2022-11-15T20:07:37;2.30;;;0.70;;
12232;SDS011;6179;51.748;8.728;2022-11-15T20:13:38;1.77;;;0.70;;
12232;SDS011;6179;51.748;8.728;2022-11-15T20:19:40;2.00;;;1.10;;
12232;SDS011;6179;51.748;8.728;2022-11-15T20:25:42;1.23;;;0.70;;
12232;SDS011;6179;51.748;8.728;2022-11-15T20:31:45;1.20;;;0.70;;
12232;SDS011;6179;51.748;8.728;2022-11-15T20:37:46;1.87;;;0.60;;
12232;SDS011;6179;51.748;8.728;2022-11-15T20:43:47;0.60;;;0.50;;
12232;SDS011;6179;51.748;8.728;2022-11-15T20:49:48;13.53;;;1.03;;
12232;SDS011;6179;51.748;8.728;2022-11-15T20:55:48;1.27;;;0.70;;
12232;SDS011;6179;51.748;8.728;2022-11-15T21:01:53;5.13;;;0.60;;
12232;SDS011;6179;51.748;8.728;2022-11-15T21:07:54;1.50;;;0.93;;
12232;SDS011;6179;51.748;8.728;2022-11-15T21:13:55;0.73;;;0.73;;
12232;SDS011;6179;51.748;8.728;2022-11-15T21:19:56;3.83;;;0.90;;
12232;SDS011;6179;51.748;8.728;2022-11-15T21:25:57;1.10;;;1.00;;
12232;SDS011;6179;51.748;8.728;2022-11-15T21:31:58;1.73;;;1.10;;
12232;SDS011;6179;51.748;8.728;2022-11-15T21:37:59;1.13;;;0.60;;
12232;SDS011;6179;51.748;8.728;2022-11-15T21:44:00;1.27;;;0.77;;
12232;SDS011;6179;51.748;8.728;2022-11-15T21:50:03;0.60;;;0.60;;
12232;SDS011;6179;51.748;8.728;2022-11-15T21:56:04;1.90;;;0.60;;
12232;SDS011;6179;51.748;8.728;2022-11-15T22:02:07;1.30;;;1.13;;
12232;SDS011;6179;51.748;8.728;2022-11-15T22:08:14;2.93;;;0.60;;
12232;SDS011;6179;51.748;8.728;2022-11-15T22:14:15;1.07;;;0.60;;
12232;SDS011;6179;51.748;8.728;2022-11-15T22:20:16;1.10;;;1.00;;
12232;SDS011;6179;51.748;8.728;2022-11-15T22:26:18;12.90;;;0.93;;
12232;SDS011;6179;51.748;8.728;2022-11-15T22:32:19;1.70;;;1.53;;
12232;SDS011;6179;51.748;8.728;2022-11-15T22:38:20;2.03;;;0.80;;
12232;SDS011;6179;51.748;8.728;2022-11-15T22:44:22;3.17;;;1.40;;
12232;SDS011;6179;51.748;8.728;2022-11-15T22:50:23;1.40;;;1.00;;
12232;SDS011;6179;51.748;8.728;2022-11-15T22:56:24;7.40;;;1.67;;
12232;SDS011;6179;51.748;8.728;2022-11-15T23:02:25;2.50;;;1.33;;
12232;SDS011;6179;51.748;8.728;2022-11-15T23:08:26;1.90;;;1.00;;
12232;SDS011;6179;51.748;8.728;2022-11-15T23:14:27;3.27;;;1.57;;
12232;SDS011;6179;51.748;8.728;2022-11-15T23:20:28;13.10;;;1.87;;
12232;SDS011;6179;51.748;8.728;2022-11-15T23:26:29;5.43;;;2.00;;
12232;SDS011;6179;51.748;8.728;2022-11-15T23:32:30;10.60;;;1.73;;
12232;SDS011;6179;51.748;8.728;2022-11-15T23:38:50;3.67;;;1.97;;
12232;SDS011;6179;51.748;8.728;2022-11-15T23:44:51;4.10;;;2.10;;
12232;SDS011;6179;51.748;8.728;2022-11-15T23:50:52;2.77;;;1.60;;
12232;SDS011;6179;51.748;8.728;2022-11-15T23:56:53;2.90;;;2.00;;
